Time;durP1;ratioP1;P1;durP2;ratioP2;P2;SDS_P1;SDS_P2;PMS_P1;PMS_P2;Temp;Humidity;BMP_temperature;BMP_pressure;BME280_temperature;BME280_humidity;BME280_pressure;Samples;Min_cycle;Max_cycle;Signal;HPM_P1;HPM_P2
2023/07/03 00:00:32;;;;;;;0.00;0.00;;;;;;;13.25;68.46;99986.78;5018360;28;20018;-77
2023/07/03 00:02:58;;;;;;;0.00;0.00;;;;;;;13.24;68.10;99985.97;5007699;28;20045;-75
2023/07/03 00:05:24;;;;;;;0.00;0.00;;;;;;;13.15;68.23;99986.91;5015156;28;20101;-77
2023/07/03 00:07:50;;;;;;;0.00;0.00;;;;;;;13.12;68.66;99987.50;5042623;28;20086;-75
2023/07/03 00:10:16;;;;;;;0.00;0.00;;;;;;;13.01;68.66;99976.66;5050903;28;20075;-77
2023/07/03 00:12:42;;;;;;;0.00;0.00;;;;;;;12.95;68.99;99988.78;5046224;28;20072;-74
2023/07/03 00:15:13;;;;;;;0.00;0.00;;;;;;;12.80;69.52;99983.47;5038101;28;20037;-76
2023/07/03 00:17:39;;;;;;;0.00;0.00;;;;;;;12.68;69.86;99973.72;5048834;28;20100;-78
2023/07/03 00:20:13;;;;;;;0.00;0.00;;;;;;;12.57;70.25;99966.69;5022492;28;20025;-78
2023/07/03 00:22:39;;;;;;;0.00;0.00;;;;;;;12.53;70.86;99976.63;5016374;28;20026;-76
2023/07/03 00:25:07;;;;;;;0.00;0.00;;;;;;;12.37;70.94;99982.25;5022936;28;20064;-77
2023/07/03 00:27:33;;;;;;;0.00;0.00;;;;;;;12.33;71.84;99994.09;5022432;28;20427;-76
2023/07/03 00:29:58;;;;;;;0.00;0.00;;;;;;;12.22;72.34;99987.88;5064142;28;20126;-76
2023/07/03 00:32:24;;;;;;;0.00;0.00;;;;;;;12.04;72.67;99975.69;5029039;28;20159;-77
2023/07/03 00:34:49;;;;;;;0.00;0.00;;;;;;;11.89;72.90;99965.66;5051110;28;20077;-77
2023/07/03 00:37:15;;;;;;;0.00;0.00;;;;;;;11.94;73.35;99959.34;5042786;28;20087;-78
2023/07/03 00:39:41;;;;;;;0.00;0.00;;;;;;;12.05;74.16;99955.41;5023474;28;20369;-77
2023/07/03 00:44:56;;;;;;;0.00;0.00;;;;;;;12.42;73.48;99986.06;5038894;28;20376;-77
2023/07/03 00:50:51;;;;;;;0.00;0.00;;;;;;;12.50;72.56;99960.75;4963282;28;20033;-78
2023/07/03 00:53:17;;;;;;;0.00;0.00;;;;;;;12.66;72.45;99997.91;4963619;28;20031;-75
2023/07/03 00:55:45;;;;;;;0.00;0.00;;;;;;;12.54;72.43;99967.28;5026056;28;20037;-76
2023/07/03 00:58:10;;;;;;;0.00;0.00;;;;;;;12.67;72.26;99976.75;5030541;28;20034;-76
2023/07/03 01:00:42;;;;;;;0.00;0.00;;;;;;;12.68;72.65;99968.22;5027002;28;20426;-76
2023/07/03 01:03:19;;;;;;;0.00;0.00;;;;;;;12.68;72.46;99972.91;5034103;28;20246;-76
2023/07/03 01:05:49;;;;;;;0.00;0.00;;;;;;;12.67;72.40;99972.06;5028736;28;20025;-77
2023/07/03 01:08:15;;;;;;;0.00;0.00;;;;;;;12.73;72.49;99965.44;5025579;28;20032;-77
2023/07/03 01:10:41;;;;;;;0.00;0.00;;;;;;;12.80;72.69;99978.78;5021645;28;20361;-78
2023/07/03 01:13:15;;;;;;;0.00;0.00;;;;;;;12.80;72.90;99980.72;5025255;28;20045;-76
2023/07/03 01:15:45;;;;;;;0.00;0.00;;;;;;;12.86;72.94;99979.56;5039892;28;20062;-75
2023/07/03 01:18:14;;;;;;;0.00;0.00;;;;;;;12.95;73.26;99994.25;5051257;28;20025;-76
2023/07/03 01:20:51;;;;;;;0.00;0.00;;;;;;;12.67;74.58;99965.78;5018083;28;20018;-77
2023/07/03 01:23:41;;;;;;;0.00;0.00;;;;;;;12.51;75.35;99968.72;5035219;28;20075;-77
2023/07/03 01:26:09;;;;;;;0.00;0.00;;;;;;;12.52;76.01;99975.00;5022280;28;20098;-77
2023/07/03 01:28:39;;;;;;;0.00;0.00;;;;;;;12.50;76.49;99960.75;5037058;28;20052;-77
2023/07/03 01:31:10;;;;;;;0.00;0.00;;;;;;;12.59;76.47;99953.53;5033571;28;20094;-76
2023/07/03 01:33:40;;;;;;;0.00;0.00;;;;;;;12.57;76.31;99955.72;5025328;28;20476;-77
2023/07/03 01:36:16;;;;;;;0.00;0.00;;;;;;;12.65;76.78;99968.81;5023994;28;20037;-77
2023/07/03 01:38:43;;;;;;;0.00;0.00;;;;;;;12.62;77.03;99952.13;5023370;28;20025;-78
2023/07/03 01:41:14;;;;;;;0.00;0.00;;;;;;;12.56;76.92;99943.16;4988860;28;20044;-77
2023/07/03 01:43:41;;;;;;;0.00;0.00;;;;;;;12.65;76.98;99968.81;5032270;28;20025;-77
2023/07/03 01:46:08;;;;;;;0.00;0.00;;;;;;;12.42;77.38;99947.69;5025286;28;20032;-77
2023/07/03 01:48:34;;;;;;;0.00;0.00;;;;;;;12.41;78.31;99974.25;5011532;28;20040;-78
2023/07/03 01:51:01;;;;;;;0.00;0.00;;;;;;;12.20;78.68;99958.00;5020400;28;20037;-78
2023/07/03 01:53:38;;;;;;;0.00;0.00;;;;;;;12.11;79.39;99950.72;5018470;28;20174;-78
2023/07/03 01:56:23;;;;;;;0.00;0.00;;;;;;;12.17;79.27;99957.78;5025030;28;20034;-78
2023/07/03 01:59:15;;;;;;;0.00;0.00;;;;;;;12.25;79.58;99943.47;5000432;28;20036;-80
2023/07/03 02:01:55;;;;;;;0.00;0.00;;;;;;;12.38;78.71;99958.41;5021463;28;20029;-79
2023/07/03 02:04:27;;;;;;;0.00;0.00;;;;;;;12.42;78.51;99953.16;5055029;28;21018;-79
2023/07/03 02:06:55;;;;;;;0.00;0.00;;;;;;;12.43;78.22;99949.31;5032440;28;20026;-78
2023/07/03 02:09:21;;;;;;;0.00;0.00;;;;;;;12.26;78.03;99922.34;5020672;28;20128;-78
2023/07/03 02:11:48;;;;;;;0.00;0.00;;;;;;;12.45;78.15;99958.88;5042253;28;20064;-79
2023/07/03 02:14:16;;;;;;;0.00;0.00;;;;;;;12.30;78.56;99951.63;5025760;28;20013;-77
2023/07/03 02:16:43;;;;;;;0.00;0.00;;;;;;;12.20;78.78;99946.25;5053909;28;20037;-77
2023/07/03 02:19:13;;;;;;;0.00;0.00;;;;;;;12.20;79.51;99951.72;5049291;28;20029;-78
2023/07/03 02:21:39;;;;;;;0.00;0.00;;;;;;;12.12;79.45;99942.22;5019496;28;20025;-77
2023/07/03 02:24:05;;;;;;;0.00;0.00;;;;;;;12.13;79.25;99964.94;5019880;28;20171;-79
2023/07/03 02:26:38;;;;;;;0.00;0.00;;;;;;;12.09;79.77;99950.16;5040411;28;20033;-77
2023/07/03 02:29:03;;;;;;;0.00;0.00;;;;;;;11.96;80.03;99952.47;5010167;28;20044;-77
2023/07/03 02:31:29;;;;;;;0.00;0.00;;;;;;;11.83;80.45;99931.19;5039512;28;20471;-76
2023/07/03 02:33:54;;;;;;;0.00;0.00;;;;;;;11.90;80.50;99947.28;5004177;28;20072;-77
2023/07/03 02:36:28;;;;;;;0.00;0.00;;;;;;;11.92;80.84;99954.13;5027657;28;20467;-77
2023/07/03 02:38:54;;;;;;;0.00;0.00;;;;;;;11.81;80.78;99942.44;5038351;28;20487;-78
2023/07/03 02:41:22;;;;;;;0.00;0.00;;;;;;;11.93;80.93;99942.09;5019020;28;20029;-78
2023/07/03 02:43:48;;;;;;;0.00;0.00;;;;;;;11.95;80.37;99928.91;5035593;28;20036;-78
2023/07/03 02:46:20;;;;;;;0.00;0.00;;;;;;;12.17;80.36;99946.81;5039865;28;20030;-78
2023/07/03 02:48:46;;;;;;;0.00;0.00;;;;;;;12.13;79.96;99929.31;5002776;28;20034;-78
2023/07/03 02:51:11;;;;;;;0.00;0.00;;;;;;;12.29;79.73;99958.19;5037529;28;20093;-78
2023/07/03 02:53:37;;;;;;;0.00;0.00;;;;;;;12.23;80.04;99956.63;5048673;28;20037;-78
2023/07/03 02:56:02;;;;;;;0.00;0.00;;;;;;;12.15;79.81;99938.88;5051386;28;20029;-78
2023/07/03 02:58:28;;;;;;;0.00;0.00;;;;;;;12.01;80.24;99935.19;5035370;28;20033;-77
2023/07/03 03:00:54;;;;;;;0.00;0.00;;;;;;;11.96;80.75;99930.56;5057373;28;20079;-78
2023/07/03 03:03:20;;;;;;;0.00;0.00;;;;;;;11.88;80.75;99953.06;5056975;28;20040;-78
2023/07/03 03:05:45;;;;;;;0.00;0.00;;;;;;;11.72;81.15;99940.59;5029164;28;20041;-76
2023/07/03 03:08:13;;;;;;;0.00;0.00;;;;;;;11.54;82.11;99929.22;5018882;28;20026;-77
2023/07/03 03:10:38;;;;;;;0.00;0.00;;;;;;;11.55;82.28;99960.13;5024047;28;20032;-77
2023/07/03 03:13:04;;;;;;;0.00;0.00;;;;;;;11.35;82.24;99931.81;5031983;28;20092;-77
2023/07/03 03:15:34;;;;;;;0.00;0.00;;;;;;;11.21;82.49;99937.06;5033923;28;20057;-77
2023/07/03 03:18:00;;;;;;;0.00;0.00;;;;;;;11.32;83.10;99952.34;5047727;28;20032;-76
2023/07/03 03:20:25;;;;;;;0.00;0.00;;;;;;;11.14;83.78;99925.59;5030786;28;20167;-77
2023/07/03 03:22:51;;;;;;;0.00;0.00;;;;;;;11.14;83.62;99931.09;5024999;28;20108;-77
2023/07/03 03:25:16;;;;;;;0.00;0.00;;;;;;;11.15;83.85;99943.69;5026178;28;20017;-77
2023/07/03 03:27:42;;;;;;;0.00;0.00;;;;;;;11.16;84.11;99945.31;5023537;28;20733;-77
2023/07/03 03:30:08;;;;;;;0.00;0.00;;;;;;;11.22;84.09;99960.59;5042902;28;20515;-77
2023/07/03 03:32:33;;;;;;;0.00;0.00;;;;;;;11.27;84.10;99949.66;5014540;28;20120;-77
2023/07/03 03:35:00;;;;;;;0.00;0.00;;;;;;;11.35;83.54;99949.03;5036880;28;20025;-77
2023/07/03 03:37:26;;;;;;;0.00;0.00;;;;;;;11.51;83.24;99951.69;4998897;28;20389;-76
2023/07/03 03:39:51;;;;;;;0.00;0.00;;;;;;;11.65;83.38;99962.81;5023460;28;20039;-75
2023/07/03 03:42:19;;;;;;;0.00;0.00;;;;;;;11.73;82.95;99955.94;5061615;28;20032;-77
2023/07/03 03:44:47;;;;;;;0.00;0.00;;;;;;;11.76;82.73;99936.19;5032410;28;20025;-76
2023/07/03 03:47:13;;;;;;;0.00;0.00;;;;;;;11.86;82.24;99942.38;5029123;28;20083;-77
2023/07/03 03:49:39;;;;;;;0.00;0.00;;;;;;;11.96;82.14;99957.97;5019792;28;20029;-77
2023/07/03 03:52:05;;;;;;;0.00;0.00;;;;;;;12.00;81.99;99948.06;5036689;28;20045;-77
2023/07/03 03:54:31;;;;;;;0.00;0.00;;;;;;;12.00;82.06;99941.75;5010259;28;20099;-76
2023/07/03 03:56:57;;;;;;;0.00;0.00;;;;;;;11.95;81.75;99945.34;5037425;28;20135;-77
2023/07/03 03:59:23;;;;;;;0.00;0.00;;;;;;;11.86;82.67;99936.09;5029608;28;20056;-78
2023/07/03 04:01:49;;;;;;;0.00;0.00;;;;;;;11.66;82.61;99932.41;5017975;28;20051;-77
2023/07/03 04:04:17;;;;;;;0.00;0.00;;;;;;;11.62;83.00;99925.03;4989234;28;20034;-77
2023/07/03 04:06:43;;;;;;;0.03;0.03;;;;;;;11.45;83.04;99926.25;5054580;28;20403;-77
2023/07/03 04:09:08;;;;;;;0.00;0.00;;;;;;;11.46;84.26;99932.53;5054011;28;20096;-77
2023/07/03 04:11:34;;;;;;;0.00;0.00;;;;;;;11.33;84.17;99944.94;5013005;28;20029;-77
2023/07/03 04:14:00;;;;;;;0.00;0.00;;;;;;;11.32;84.19;99946.06;4998837;28;20029;-77
2023/07/03 04:16:28;;;;;;;0.00;0.00;;;;;;;11.29;84.68;99941.16;5024502;28;20056;-77
2023/07/03 04:18:54;;;;;;;0.00;0.00;;;;;;;11.30;84.77;99916.22;5035452;28;20054;-77
2023/07/03 04:21:20;;;;;;;0.00;0.00;;;;;;;11.61;85.01;99935.19;5063537;28;20060;-77
2023/07/03 04:23:47;;;;;;;0.00;0.00;;;;;;;11.79;83.85;99930.13;5016244;28;20039;-76
2023/07/03 04:26:13;;;;;;;0.00;0.00;;;;;;;12.00;83.54;99937.09;5011976;28;20511;-77
2023/07/03 04:28:39;;;;;;;0.00;0.00;;;;;;;12.10;82.78;99930.69;5034142;28;20033;-76
2023/07/03 04:31:06;;;;;;;0.00;0.00;;;;;;;12.19;82.66;99928.16;5036695;28;20040;-78
2023/07/03 04:33:32;;;;;;;0.10;0.10;;;;;;;12.27;82.63;99946.72;5018340;28;20029;-76
2023/07/03 04:35:57;;;;;;;0.00;0.00;;;;;;;12.31;82.28;99930.50;5022751;28;20033;-76
2023/07/03 04:38:28;;;;;;;0.00;0.00;;;;;;;12.30;81.99;99935.16;5025853;28;20108;-76
2023/07/03 04:40:54;;;;;;;0.00;0.00;;;;;;;12.31;81.76;99931.34;5024308;28;20472;-76
2023/07/03 04:43:20;;;;;;;0.00;0.00;;;;;;;12.28;82.10;99931.06;4991576;28;20025;-75
2023/07/03 04:45:51;;;;;;;0.00;0.00;;;;;;;12.27;82.02;99930.28;5004314;28;20029;-75
2023/07/03 04:48:19;;;;;;;0.00;0.00;;;;;;;12.34;81.67;99946.41;5007186;28;21857;-76
2023/07/03 04:50:48;;;;;;;0.00;0.00;;;;;;;12.39;82.04;99944.38;5023842;28;20491;-76
2023/07/03 04:53:14;;;;;;;0.00;0.00;;;;;;;12.44;81.81;99956.41;5038286;28;20034;-76
2023/07/03 04:55:40;;;;;;;0.00;0.00;;;;;;;12.50;81.84;99955.25;5006012;28;20059;-75
2023/07/03 04:58:07;;;;;;;0.00;0.00;;;;;;;12.61;81.45;99961.47;5010618;28;20037;-76
2023/07/03 05:00:33;;;;;;;0.00;0.00;;;;;;;12.70;81.02;99954.22;5012360;28;20018;-76
2023/07/03 05:03:02;;;;;;;0.00;0.00;;;;;;;12.80;80.79;99942.31;5007247;28;20380;-76
2023/07/03 05:05:32;;;;;;;0.00;0.00;;;;;;;12.91;79.98;99963.06;5030078;28;20388;-76
2023/07/03 05:08:01;;;;;;;0.00;0.00;;;;;;;12.91;80.02;99939.16;5038046;28;20490;-76
2023/07/03 05:10:26;;;;;;;0.00;0.00;;;;;;;12.93;79.68;99941.59;5055346;28;20095;-76
2023/07/03 05:12:55;;;;;;;0.00;0.00;;;;;;;13.00;79.57;99952.25;5002632;28;20072;-77
2023/07/03 05:15:21;;;;;;;0.00;0.00;;;;;;;13.21;79.30;99958.28;5021188;28;20029;-74
2023/07/03 05:17:52;;;;;;;0.00;0.00;;;;;;;13.27;78.79;99948.84;5023216;28;20034;-75
2023/07/03 05:20:19;;;;;;;0.00;0.00;;;;;;;13.14;78.92;99938.59;5021867;28;20625;-75
2023/07/03 05:22:45;;;;;;;0.00;0.00;;;;;;;13.01;78.84;99951.09;5019630;28;20129;-76
2023/07/03 05:25:13;;;;;;;0.00;0.00;;;;;;;12.90;79.47;99959.47;4992784;28;20056;-73
2023/07/03 05:27:39;;;;;;;0.00;0.00;;;;;;;12.76;79.70;99969.50;5009634;28;20491;-75
2023/07/03 05:30:06;;;;;;;0.00;0.00;;;;;;;12.66;79.82;99956.75;4997817;28;20045;-74
2023/07/03 05:32:32;;;;;;;0.00;0.00;;;;;;;12.64;80.03;99950.72;5033484;28;20034;-75
2023/07/03 05:35:02;;;;;;;0.00;0.00;;;;;;;12.67;79.95;99950.13;4995524;28;20083;-75
2023/07/03 05:37:27;;;;;;;0.00;0.00;;;;;;;12.65;80.08;99952.34;5009532;28;20029;-75
2023/07/03 05:40:03;;;;;;;0.00;0.00;;;;;;;12.62;80.03;99931.00;5009497;28;20029;-74
2023/07/03 05:42:29;;;;;;;0.00;0.00;;;;;;;12.78;79.78;99966.50;5031610;28;20030;-75
2023/07/03 05:44:54;;;;;;;0.00;0.00;;;;;;;12.77;79.83;99959.38;4987375;28;20460;-76
2023/07/03 05:47:20;;;;;;;0.00;0.00;;;;;;;12.73;79.80;99959.13;4986853;28;20043;-77
2023/07/03 05:50:00;;;;;;;0.00;0.00;;;;;;;12.81;79.48;99954.94;5004895;28;20029;-77
2023/07/03 05:52:27;;;;;;;0.00;0.00;;;;;;;12.92;79.44;99953.69;4989833;28;20710;-78
2023/07/03 05:54:56;;;;;;;0.00;0.00;;;;;;;13.02;79.00;99956.31;5029453;28;20049;-77
2023/07/03 05:57:24;;;;;;;0.00;0.00;;;;;;;13.26;78.50;99944.47;5020432;28;20044;-77
2023/07/03 05:59:59;;;;;;;0.00;0.00;;;;;;;13.69;77.30;99946.38;5004314;28;20497;-78
2023/07/03 06:02:32;;;;;;;0.00;0.00;;;;;;;13.97;75.88;99947.28;5007305;28;20087;-77
2023/07/03 06:05:00;;;;;;;0.00;0.00;;;;;;;14.19;74.91;99962.31;5002247;28;20053;-77
2023/07/03 06:07:25;;;;;;;0.00;0.00;;;;;;;14.13;74.48;99964.31;5002173;28;20124;-76
2023/07/03 06:09:51;;;;;;;0.00;0.00;;;;;;;14.42;74.20;99968.78;5045411;28;20542;-76
2023/07/03 06:12:17;;;;;;;0.00;0.00;;;;;;;14.71;73.38;99976.78;5000264;28;20034;-78
2023/07/03 06:14:42;;;;;;;0.00;0.00;;;;;;;14.79;72.26;99967.00;5032750;28;20053;-77
2023/07/03 06:17:08;;;;;;;0.00;0.00;;;;;;;14.79;71.92;99976.09;4999036;28;20034;-78
2023/07/03 06:19:36;;;;;;;0.00;0.00;;;;;;;14.73;71.39;99991.06;5020923;28;20029;-78
2023/07/03 06:22:02;;;;;;;0.00;0.00;;;;;;;14.64;71.69;99993.69;5042987;28;20067;-78
2023/07/03 06:24:28;;;;;;;0.00;0.00;;;;;;;14.60;71.77;99967.06;5020499;28;20057;-78
2023/07/03 06:26:54;;;;;;;0.00;0.00;;;;;;;14.78;71.10;99990.97;4986100;28;20065;-78
2023/07/03 06:29:19;;;;;;;0.00;0.00;;;;;;;14.71;70.71;99976.78;4995831;28;20022;-78
2023/07/03 06:31:45;;;;;;;0.00;0.00;;;;;;;14.77;69.98;99981.06;4993816;28;20025;-79
2023/07/03 06:34:10;;;;;;;0.00;0.00;;;;;;;14.76;70.44;99978.63;5011231;28;20057;-79
2023/07/03 06:36:36;;;;;;;0.00;0.00;;;;;;;14.86;70.03;99988.63;4999487;28;20109;-78
2023/07/03 06:39:04;;;;;;;0.00;0.00;;;;;;;15.00;69.51;99978.44;5001053;28;20037;-80
2023/07/03 06:41:34;;;;;;;0.00;0.00;;;;;;;14.97;69.17;99979.88;5000905;28;20121;-78
2023/07/03 06:44:00;;;;;;;0.00;0.00;;;;;;;14.99;69.38;99987.81;5007656;28;20025;-77
2023/07/03 06:46:26;;;;;;;0.00;0.00;;;;;;;15.09;69.51;99992.31;4995936;28;20045;-79
2023/07/03 06:48:55;;;;;;;0.00;0.00;;;;;;;15.05;68.74;99975.56;4988399;28;20479;-76
2023/07/03 06:51:20;;;;;;;0.00;0.00;;;;;;;15.31;68.43;99980.56;5012059;28;20459;-78
2023/07/03 06:53:46;;;;;;;0.00;0.00;;;;;;;15.44;68.00;99970.63;5017885;28;20171;-78
2023/07/03 06:56:11;;;;;;;0.00;0.00;;;;;;;15.68;66.96;99964.84;4993859;28;20025;-77
2023/07/03 06:58:37;;;;;;;0.00;0.00;;;;;;;15.94;66.07;99967.03;4994564;28;20036;-78
2023/07/03 07:01:11;;;;;;;0.00;0.00;;;;;;;16.22;65.13;99979.56;5007282;28;20029;-78
2023/07/03 07:03:37;;;;;;;;;;;;;;;16.53;62.60;99994.50;5006980;28;20032;-77
2023/07/03 07:06:15;;;;;;;0.00;0.00;;;;;;;16.47;60.86;99982.78;5003613;28;19913;-76
2023/07/03 07:08:41;;;;;;;0.00;0.00;;;;;;;16.44;60.89;99986.19;5030837;28;20075;-78
2023/07/03 07:17:21;;;;;;;0.00;0.00;;;;;;;16.09;62.43;99988.72;5426461;23;20356;-78
2023/07/03 07:19:47;;;;;;;0.00;0.00;;;;;;;16.10;61.56;99978.50;4986173;28;20033;-79
2023/07/03 07:22:15;;;;;;;0.00;0.00;;;;;;;16.02;62.04;99996.63;5009589;28;20041;-78
2023/07/03 07:24:43;;;;;;;0.00;0.00;;;;;;;16.01;62.24;99997.72;5006275;28;20032;-78
2023/07/03 07:27:08;;;;;;;0.00;0.00;;;;;;;15.76;62.22;99983.41;5018613;28;20041;-78
2023/07/03 07:29:34;;;;;;;0.00;0.00;;;;;;;15.45;62.46;99950.19;4989267;28;20025;-78
2023/07/03 07:32:00;;;;;;;0.00;0.00;;;;;;;15.61;62.61;99978.22;4999459;28;20030;-79
2023/07/03 07:34:25;;;;;;;0.00;0.00;;;;;;;15.68;63.40;99984.97;5004052;28;20116;-79
2023/07/03 07:36:51;;;;;;;0.00;0.00;;;;;;;15.98;62.50;99996.41;5010167;28;20033;-78
2023/07/03 07:39:21;;;;;;;0.00;0.00;;;;;;;16.03;61.80;99977.00;5043918;28;20032;-79
2023/07/03 07:41:46;;;;;;;0.00;0.00;;;;;;;16.21;60.67;99983.44;5021340;28;20017;-78
2023/07/03 07:44:12;;;;;;;0.00;0.00;;;;;;;16.28;61.17;99982.16;5005437;28;20680;-77
2023/07/03 07:46:37;;;;;;;0.00;0.00;;;;;;;16.33;60.23;99984.81;4994293;28;20034;-79
2023/07/03 07:49:03;;;;;;;0.00;0.00;;;;;;;16.31;59.85;99973.25;5022884;28;20033;-79
2023/07/03 07:51:30;;;;;;;0.00;0.00;;;;;;;16.40;59.40;99963.91;5023439;28;20060;-78
2023/07/03 07:53:57;;;;;;;0.00;0.00;;;;;;;16.62;58.74;99972.44;5038811;28;20071;-78
2023/07/03 07:56:23;;;;;;;0.00;0.00;;;;;;;16.84;58.35;99975.16;5024953;28;20098;-78
2023/07/03 07:58:49;;;;;;;0.00;0.00;;;;;;;17.05;57.47;99986.44;5020449;28;20503;-78
2023/07/03 08:01:16;;;;;;;0.00;0.00;;;;;;;17.27;57.67;99979.19;5019563;28;20036;-79
2023/07/03 08:03:43;;;;;;;0.00;0.00;;;;;;;17.98;55.30;99982.88;5026352;28;20021;-78
2023/07/03 08:06:10;;;;;;;0.00;0.00;;;;;;;18.21;53.77;99983.47;5026871;28;20029;-81
2023/07/03 08:08:36;;;;;;;0.00;0.00;;;;;;;18.20;53.00;99959.72;5018888;28;20026;-78
2023/07/03 08:11:04;;;;;;;0.00;0.00;;;;;;;18.07;53.29;99978.13;5045264;28;20038;-78
2023/07/03 08:13:34;;;;;;;0.00;0.00;;;;;;;17.91;53.01;99970.31;5013483;28;20021;-80
2023/07/03 08:16:00;;;;;;;0.00;0.00;;;;;;;18.10;52.88;99983.00;5035110;28;20032;-74
2023/07/03 08:18:25;;;;;;;0.00;0.00;;;;;;;18.30;52.89;99987.84;4985208;28;20030;-71
2023/07/03 08:20:51;;;;;;;0.00;0.00;;;;;;;18.47;53.39;99995.31;5007321;28;20035;-73
2023/07/03 08:23:18;;;;;;;0.00;0.00;;;;;;;18.80;53.14;99994.69;5023076;28;20398;-72
2023/07/03 08:25:48;;;;;;;0.00;0.00;;;;;;;18.62;52.55;99982.88;5009961;28;20033;-71
2023/07/03 08:28:13;;;;;;;0.00;0.00;;;;;;;18.30;53.00;99974.00;5026079;28;20816;-72
2023/07/03 08:30:39;;;;;;;0.00;0.00;;;;;;;18.18;54.05;99979.41;4985154;28;20046;-72
2023/07/03 08:33:04;;;;;;;0.00;0.00;;;;;;;18.14;53.95;99983.97;5036885;28;20029;-71
2023/07/03 08:35:30;;;;;;;0.00;0.00;;;;;;;18.30;53.61;99976.78;5012525;28;20838;-72
2023/07/03 08:37:55;;;;;;;0.00;0.00;;;;;;;18.74;53.20;99984.94;5022493;28;20041;-72
2023/07/03 08:40:22;;;;;;;0.00;0.00;;;;;;;18.82;51.57;99963.91;5035034;28;20034;-71
2023/07/03 08:42:53;;;;;;;0.00;0.00;;;;;;;18.77;51.31;99961.31;5019894;28;20025;-72
2023/07/03 08:45:20;;;;;;;0.00;0.00;;;;;;;18.89;50.96;99969.75;5026148;28;20049;-72
2023/07/03 08:47:49;;;;;;;0.00;0.00;;;;;;;18.98;50.57;99978.88;5018294;28;20037;-71
2023/07/03 08:50:18;;;;;;;0.00;0.00;;;;;;;19.07;50.33;99980.75;5023923;28;20052;-71
2023/07/03 08:52:52;;;;;;;0.00;0.00;;;;;;;19.23;50.46;99967.97;5004673;28;20044;-70
2023/07/03 08:55:23;;;;;;;0.00;0.00;;;;;;;19.33;48.84;99972.28;5002492;28;20028;-73
2023/07/03 08:57:49;;;;;;;0.00;0.00;;;;;;;19.52;49.21;99957.97;5022124;28;20049;-72
2023/07/03 09:00:15;;;;;;;0.00;0.00;;;;;;;19.74;48.21;99958.78;5022645;28;20029;-72
2023/07/03 09:02:48;;;;;;;0.00;0.00;;;;;;;19.94;47.71;99969.06;5023509;28;20029;-73
2023/07/03 09:05:40;;;;;;;0.00;0.00;;;;;;;19.95;46.68;99958.81;5006013;28;20025;-73
2023/07/03 09:08:12;;;;;;;0.00;0.00;;;;;;;19.83;46.92;99951.22;5012448;28;20156;-73
2023/07/03 09:10:43;;;;;;;0.00;0.00;;;;;;;19.91;47.14;99957.84;5018962;28;20121;-75
2023/07/03 09:13:14;;;;;;;0.00;0.00;;;;;;;20.45;46.20;99959.75;5023925;28;20037;-72
2023/07/03 09:15:39;;;;;;;0.00;0.00;;;;;;;20.81;44.92;99956.25;5017255;28;20025;-71
2023/07/03 09:18:12;;;;;;;0.00;0.00;;;;;;;20.54;44.70;99957.69;5018543;28;20057;-72
2023/07/03 09:20:40;;;;;;;0.00;0.00;;;;;;;20.13;44.92;99959.44;5004905;28;20018;-74
2023/07/03 09:23:11;;;;;;;0.00;0.00;;;;;;;19.68;46.24;99972.88;4999473;28;20029;-71
2023/07/03 09:25:53;;;;;;;0.00;0.00;;;;;;;19.78;46.88;99960.56;5001193;28;20034;-72
2023/07/03 09:28:19;;;;;;;0.00;0.00;;;;;;;20.08;45.16;99951.31;5005885;28;20133;-71
2023/07/03 09:30:45;;;;;;;0.00;0.00;;;;;;;20.18;44.33;99950.88;4986032;28;20117;-71
2023/07/03 09:33:10;;;;;;;0.00;0.00;;;;;;;20.25;44.27;99956.69;5006577;28;20034;-72
2023/07/03 09:35:43;;;;;;;0.00;0.00;;;;;;;19.97;44.81;99942.59;5010492;28;21958;-71
2023/07/03 09:38:15;;;;;;;0.00;0.00;;;;;;;19.57;45.52;99937.56;5003603;28;20188;-72
2023/07/03 09:40:43;;;;;;;0.00;0.00;;;;;;;19.42;46.28;99952.81;4995932;28;20111;-72
2023/07/03 09:43:26;;;;;;;0.00;0.00;;;;;;;19.64;46.32;99962.75;5001374;28;20037;-75
2023/07/03 09:46:09;;;;;;;0.00;0.00;;;;;;;20.18;43.30;99959.19;5004219;28;20018;-73
2023/07/03 09:48:36;;;;;;;0.00;0.00;;;;;;;20.56;42.73;99952.59;5016257;28;20041;-74
2023/07/03 09:51:06;;;;;;;0.00;0.00;;;;;;;21.12;41.90;99956.81;5006984;28;20022;-74
2023/07/03 09:53:32;;;;;;;0.00;0.00;;;;;;;21.51;39.60;99954.44;4981118;28;20357;-73
2023/07/03 09:56:02;;;;;;;0.00;0.00;;;;;;;20.92;40.16;99953.78;4983999;28;20049;-73
2023/07/03 09:58:28;;;;;;;0.00;0.00;;;;;;;20.12;41.68;99960.56;5008746;28;20523;-72
2023/07/03 10:00:56;;;;;;;0.00;0.00;;;;;;;19.55;43.74;99962.84;4999109;28;20023;-73
2023/07/03 10:03:26;;;;;;;0.00;0.00;;;;;;;19.62;44.16;99963.09;4981605;28;20027;-73
2023/07/03 10:05:53;;;;;;;0.00;0.00;;;;;;;19.88;43.73;99957.38;4991913;28;20018;-73
2023/07/03 10:08:22;;;;;;;0.00;0.00;;;;;;;20.37;43.67;99967.84;5000623;28;20034;-71
2023/07/03 10:10:50;;;;;;;0.00;0.00;;;;;;;20.60;42.79;99956.28;4970514;28;20058;-72
2023/07/03 10:13:28;;;;;;;0.00;0.00;;;;;;;20.43;42.63;99962.03;5000237;28;20141;-73
2023/07/03 10:15:55;;;;;;;0.00;0.00;;;;;;;19.96;44.22;99961.22;4991076;28;20033;-71
2023/07/03 10:18:27;;;;;;;0.00;0.00;;;;;;;19.85;45.33;99973.91;4990687;28;20035;-73
2023/07/03 10:20:54;;;;;;;0.00;0.00;;;;;;;19.91;45.99;99989.19;5016176;28;20033;-71
2023/07/03 10:23:23;;;;;;;0.00;0.00;;;;;;;20.88;44.63;99973.16;5002350;28;20047;-73
2023/07/03 10:26:08;;;;;;;0.00;0.00;;;;;;;22.32;40.14;99962.72;5008345;28;20033;-74
2023/07/03 10:28:41;;;;;;;0.00;0.00;;;;;;;24.57;37.16;99956.97;5026790;28;20079;-72
2023/07/03 10:31:13;;;;;;;0.00;0.00;;;;;;;26.15;33.86;99966.06;5036256;28;20718;-71
2023/07/03 10:33:45;;;;;;;0.00;0.00;;;;;;;27.14;31.22;99963.78;5017518;28;20045;-71
2023/07/03 10:36:17;;;;;;;0.00;0.00;;;;;;;27.39;32.30;99955.53;5016300;28;20018;-72
2023/07/03 10:38:55;;;;;;;0.00;0.00;;;;;;;28.09;29.99;99968.69;5014976;28;20369;-71
2023/07/03 10:41:31;;;;;;;0.00;0.00;;;;;;;26.97;31.64;99963.25;5004761;28;20108;-72
2023/07/03 10:44:08;;;;;;;0.00;0.00;;;;;;;26.03;32.31;99955.13;5023972;28;20029;-73
2023/07/03 10:47:09;;;;;;;0.00;0.00;;;;;;;24.75;34.69;99950.91;5012447;28;20071;-73
2023/07/03 10:49:37;;;;;;;0.00;0.00;;;;;;;23.46;35.93;99955.56;5024955;28;20021;-71
2023/07/03 10:52:15;;;;;;;0.00;0.00;;;;;;;22.98;37.73;99950.09;5001258;28;20040;-71
2023/07/03 10:54:55;;;;;;;0.00;0.00;;;;;;;23.11;38.40;99936.84;5024015;28;20480;-70
2023/07/03 10:57:33;;;;;;;0.00;0.00;;;;;;;23.52;37.95;99954.13;5019654;28;20487;-71
2023/07/03 11:00:06;;;;;;;0.00;0.00;;;;;;;24.27;36.92;99948.44;5017766;28;20037;-74
2023/07/03 11:02:41;;;;;;;0.00;0.00;;;;;;;24.47;35.98;99946.41;5024649;28;20439;-74
2023/07/03 11:05:22;;;;;;;0.00;0.00;;;;;;;23.45;37.38;99948.38;5020204;28;20053;-75
2023/07/03 11:07:56;;;;;;;0.00;0.00;;;;;;;22.30;39.72;99962.25;5038951;28;20140;-75
2023/07/03 11:10:27;;;;;;;0.00;0.00;;;;;;;21.84;40.80;99939.50;5024355;28;20448;-73
2023/07/03 11:13:01;;;;;;;0.00;0.00;;;;;;;22.07;41.07;99951.69;4988506;28;20063;-73
2023/07/03 11:15:45;;;;;;;0.00;0.00;;;;;;;22.61;39.20;99949.56;5022094;28;20499;-73
2023/07/03 11:18:30;;;;;;;0.00;0.00;;;;;;;23.27;38.87;99941.59;5011525;28;20046;-73
2023/07/03 11:21:27;;;;;;;0.00;0.00;;;;;;;25.86;34.68;99934.09;4979779;28;20029;-73
2023/07/03 11:24:18;;;;;;;0.00;0.00;;;;;;;27.49;32.45;99925.91;4986944;28;20041;-74
2023/07/03 11:27:03;;;;;;;0.00;0.00;;;;;;;30.27;27.67;99915.25;4988980;28;20125;-72
2023/07/03 11:29:29;;;;;;;0.00;0.00;;;;;;;32.52;24.85;99910.34;5001637;28;20059;-73
2023/07/03 11:31:56;;;;;;;0.00;0.00;;;;;;;34.06;23.34;99910.63;4988388;28;20110;-73
2023/07/03 11:34:23;;;;;;;0.00;0.00;;;;;;;33.28;23.79;99896.88;4979287;28;20089;-73
2023/07/03 11:36:51;;;;;;;0.00;0.00;;;;;;;33.15;24.05;99902.34;4985705;28;20072;-73
2023/07/03 11:39:24;;;;;;;0.00;0.00;;;;;;;32.66;24.97;99902.84;4986784;28;20033;-74
2023/07/03 11:41:54;;;;;;;0.00;0.00;;;;;;;30.83;26.25;99901.13;4998162;28;20028;-74
2023/07/03 11:44:41;;;;;;;0.00;0.00;;;;;;;29.87;27.49;99892.16;5002433;28;20041;-74
2023/07/03 11:47:18;;;;;;;0.00;0.00;;;;;;;28.78;29.08;99890.88;4974099;28;20030;-73
2023/07/03 11:49:53;;;;;;;0.00;0.00;;;;;;;28.16;29.74;99918.94;5004956;28;20033;-74
2023/07/03 11:52:33;;;;;;;0.00;0.00;;;;;;;26.12;32.28;99899.59;4982531;28;20030;-73
2023/07/03 11:55:15;;;;;;;0.00;0.00;;;;;;;24.15;35.19;99890.78;4999668;28;20029;-73